Tropical Cyclones
[Index]
Main Index Home Page Stock Weather Photos Extreme Storms Discussion Storm News and Storm Chasing Reports Tropical Cyclones / Hurricanes / Typhoons Weather Data and Links Wild Fires / Bushfires Weather Observation Techniques Weather Picture Catalogue Tornado Pictures and Reports Stock Video Footage and DVDs for sale
Season 2012-2013 Tropical Cyclone NARELLE Track Map
Season 2012-2013 Summaries: [BoM-AU] [JTWC-AU] [JTWC-SIO] [JTWC-SPAC] [JTWC-SH]
<<- Previous TC | JTWC 2012-2013 Season | Next TC ->>

click for intensity scale information  Lat/long Grid: Show Hide

 Date Labels: Show Hide

Joint Typhoon Warning Centre Cyclone Data

Name: NARELLE

07 Jan 2013 06:00 UTC to 14 Jan 2013 12:00 UTC

    date/time    lat    long     hPa   cat  kts
2013-01-07 06   11.3   121.1    1003         25          
2013-01-07 12   11.6   120.6    1000         30          
2013-01-07 18   11.7   119.9    1000         30          
2013-01-08 00   12.0   119.2     996         35          
2013-01-08 06   12.3   118.5     993    1    40          
2013-01-08 12   12.4   117.8     989    1    45          
2013-01-08 18   12.4   117.1     982    2    55          
2013-01-08 18   12.4   117.1     982    2    55          
2013-01-09 00   12.7   116.7     978    2    60          
2013-01-09 00   12.7   116.7     978    2    60          
2013-01-09 06   13.1   116.3     974    2    65          
2013-01-09 06   13.1   116.3     974    2    65          
2013-01-09 12   13.5   116.0     974    2    65          
2013-01-09 12   13.5   116.0     974    2    65          
2013-01-09 12   13.5   116.0     974    2    65          
2013-01-09 18   13.9   115.9     970    2    70          
2013-01-09 18   13.9   115.9     970    2    70          
2013-01-09 18   13.9   115.9     970    2    70          
2013-01-10 00   14.7   115.8     970    2    70          
2013-01-10 00   14.7   115.8     970    2    70          
2013-01-10 00   14.7   115.8     970    2    70          
2013-01-10 06   15.4   115.5     963    3    80          
2013-01-10 06   15.4   115.5     963    3    80          
2013-01-10 06   15.4   115.5     963    3    80          
2013-01-10 12   16.3   115.1     963    3    80          
2013-01-10 12   16.3   115.1     963    3    80          
2013-01-10 12   16.3   115.1     963    3    80          
2013-01-10 18   16.8   114.4     959    3    85          
2013-01-10 18   16.8   114.4     959    3    85          
2013-01-10 18   16.8   114.4     959    3    85          
2013-01-11 00   17.3   113.7     956    3    90          
2013-01-11 00   17.3   113.7     956    3    90          
2013-01-11 00   17.3   113.7     956    3    90          
2013-01-11 06   17.7   113.2     944    4   105          
2013-01-11 06   17.7   113.2     944    4   105          
2013-01-11 06   17.7   113.2     944    4   105          
2013-01-11 12   18.1   112.7     937    4   115          
2013-01-11 12   18.1   112.7     937    4   115          
2013-01-11 12   18.1   112.7     937    4   115          
2013-01-11 18   18.4   112.3     933    4   120          
2013-01-11 18   18.4   112.3     933    4   120          
2013-01-11 18   18.4   112.3     933    4   120          
2013-01-12 00   18.8   112.2     933    4   120          
2013-01-12 00   18.8   112.2     933    4   120          
2013-01-12 00   18.8   112.2     933    4   120          
2013-01-12 06   19.3   112.0     937    4   115          
2013-01-12 06   19.3   112.0     937    4   115          
2013-01-12 06   19.3   112.0     937    4   115          
2013-01-12 12   20.0   111.7     944    4   105          
2013-01-12 12   20.0   111.7     944    4   105          
2013-01-12 12   20.0   111.7     944    4   105          
2013-01-12 18   20.7   111.3     956    3    90          
2013-01-12 18   20.7   111.3     956    3    90          
2013-01-12 18   20.7   111.3     956    3    90          
2013-01-13 00   21.4   110.9     963    3    80          
2013-01-13 00   21.4   110.9     963    3    80          
2013-01-13 00   21.4   110.9     963    3    80          
2013-01-13 06   22.3   110.5     967    3    75          
2013-01-13 06   22.3   110.5     967    3    75          
2013-01-13 06   22.3   110.5     967    3    75          
2013-01-13 12   23.3   110.2     967    3    75          
2013-01-13 12   23.3   110.2     967    3    75          
2013-01-13 12   23.3   110.2     967    3    75          
2013-01-13 18   24.3   109.9     974    2    65          
2013-01-13 18   24.3   109.9     974    2    65          
2013-01-14 00   25.4   109.7     978    2    60          
2013-01-14 00   25.4   109.7     978    2    60          
2013-01-14 06   26.6   109.6     989    1    45          
2013-01-14 12   28.8   110.2     993    1    40          
Winds are 1-min average.

Tropical cyclone tracks developed by Michael Bath using data from the Joint Typhoon Warning Centre Best Tracks and Google Maps.


[Australian Severe Weather index] [Copyright Notice] [Email Contacts] [Search This Site] [Privacy Policy]
Document: tropical_cyclone_narelle.htm Updated: 28 June 2017